sensor_id;sensor_type;location;lat;lon;timestamp;P1;durP1;ratioP1;P2;durP2;ratioP2
7402;SDS011;3742;48.770;11.440;2022-12-08T00:02:04;13.20;;;10.33;;
7402;SDS011;3742;48.770;11.440;2022-12-08T00:04:32;12.00;;;9.47;;
7402;SDS011;3742;48.770;11.440;2022-12-08T00:07:21;13.13;;;9.30;;
7402;SDS011;3742;48.770;11.440;2022-12-08T00:10:07;10.03;;;8.83;;
7402;SDS011;3742;48.770;11.440;2022-12-08T00:12:56;13.13;;;10.17;;
7402;SDS011;3742;48.770;11.440;2022-12-08T00:15:25;16.67;;;11.03;;
7402;SDS011;3742;48.770;11.440;2022-12-08T00:17:54;11.97;;;9.40;;
7402;SDS011;3742;48.770;11.440;2022-12-08T00:20:23;13.03;;;9.50;;
7402;SDS011;3742;48.770;11.440;2022-12-08T00:22:52;14.83;;;10.27;;
7402;SDS011;3742;48.770;11.440;2022-12-08T00:25:20;14.50;;;11.13;;
7402;SDS011;3742;48.770;11.440;2022-12-08T00:27:49;15.07;;;10.67;;
7402;SDS011;3742;48.770;11.440;2022-12-08T00:30:17;14.77;;;10.80;;
7402;SDS011;3742;48.770;11.440;2022-12-08T00:32:46;14.87;;;9.97;;
7402;SDS011;3742;48.770;11.440;2022-12-08T00:35:15;11.50;;;9.53;;
7402;SDS011;3742;48.770;11.440;2022-12-08T00:37:44;14.73;;;9.63;;
7402;SDS011;3742;48.770;11.440;2022-12-08T00:40:13;15.03;;;9.50;;
7402;SDS011;3742;48.770;11.440;2022-12-08T00:42:41;11.87;;;9.07;;
7402;SDS011;3742;48.770;11.440;2022-12-08T00:45:10;12.77;;;9.23;;
7402;SDS011;3742;48.770;11.440;2022-12-08T00:47:39;11.43;;;9.23;;
7402;SDS011;3742;48.770;11.440;2022-12-08T00:50:07;11.07;;;8.33;;
7402;SDS011;3742;48.770;11.440;2022-12-08T00:52:38;11.10;;;8.87;;
7402;SDS011;3742;48.770;11.440;2022-12-08T00:55:06;12.37;;;8.70;;
7402;SDS011;3742;48.770;11.440;2022-12-08T00:57:36;12.00;;;9.50;;
7402;SDS011;3742;48.770;11.440;2022-12-08T01:00:05;12.37;;;9.23;;
7402;SDS011;3742;48.770;11.440;2022-12-08T01:02:34;11.63;;;8.97;;
7402;SDS011;3742;48.770;11.440;2022-12-08T01:05:03;10.47;;;8.73;;
7402;SDS011;3742;48.770;11.440;2022-12-08T01:07:32;10.43;;;8.73;;
7402;SDS011;3742;48.770;11.440;2022-12-08T01:10:03;12.47;;;9.07;;
7402;SDS011;3742;48.770;11.440;2022-12-08T01:12:33;12.30;;;9.07;;
7402;SDS011;3742;48.770;11.440;2022-12-08T01:15:02;10.70;;;9.27;;
7402;SDS011;3742;48.770;11.440;2022-12-08T01:17:30;12.77;;;9.43;;
7402;SDS011;3742;48.770;11.440;2022-12-08T01:19:59;13.23;;;9.67;;
7402;SDS011;3742;48.770;11.440;2022-12-08T01:22:29;13.10;;;9.40;;
7402;SDS011;3742;48.770;11.440;2022-12-08T01:24:58;12.13;;;9.33;;
7402;SDS011;3742;48.770;11.440;2022-12-08T01:27:27;14.77;;;10.67;;
7402;SDS011;3742;48.770;11.440;2022-12-08T01:29:56;13.60;;;9.97;;
7402;SDS011;3742;48.770;11.440;2022-12-08T01:32:24;13.00;;;10.07;;
7402;SDS011;3742;48.770;11.440;2022-12-08T01:34:53;13.23;;;10.90;;
7402;SDS011;3742;48.770;11.440;2022-12-08T01:37:21;20.40;;;10.60;;
7402;SDS011;3742;48.770;11.440;2022-12-08T01:39:50;14.50;;;9.77;;
7402;SDS011;3742;48.770;11.440;2022-12-08T01:42:20;13.33;;;9.93;;
7402;SDS011;3742;48.770;11.440;2022-12-08T01:44:55;14.27;;;9.37;;
7402;SDS011;3742;48.770;11.440;2022-12-08T01:47:28;12.73;;;10.00;;
7402;SDS011;3742;48.770;11.440;2022-12-08T01:50:00;11.37;;;8.90;;
7402;SDS011;3742;48.770;11.440;2022-12-08T01:52:30;11.93;;;9.53;;
7402;SDS011;3742;48.770;11.440;2022-12-08T01:55:01;11.93;;;9.77;;
7402;SDS011;3742;48.770;11.440;2022-12-08T01:57:32;12.20;;;9.77;;
7402;SDS011;3742;48.770;11.440;2022-12-08T02:00:06;12.30;;;9.10;;
7402;SDS011;3742;48.770;11.440;2022-12-08T02:02:38;13.63;;;9.80;;
7402;SDS011;3742;48.770;11.440;2022-12-08T02:05:11;12.87;;;9.83;;
7402;SDS011;3742;48.770;11.440;2022-12-08T02:07:41;12.13;;;9.33;;
7402;SDS011;3742;48.770;11.440;2022-12-08T02:10:11;12.93;;;10.57;;
7402;SDS011;3742;48.770;11.440;2022-12-08T02:12:41;11.67;;;9.33;;
7402;SDS011;3742;48.770;11.440;2022-12-08T02:15:11;11.67;;;9.27;;
7402;SDS011;3742;48.770;11.440;2022-12-08T02:17:47;14.17;;;9.47;;
7402;SDS011;3742;48.770;11.440;2022-12-08T02:20:25;11.70;;;9.90;;
7402;SDS011;3742;48.770;11.440;2022-12-08T02:23:00;12.93;;;10.50;;
7402;SDS011;3742;48.770;11.440;2022-12-08T02:25:37;14.53;;;10.30;;
7402;SDS011;3742;48.770;11.440;2022-12-08T02:28:15;11.37;;;10.13;;
7402;SDS011;3742;48.770;11.440;2022-12-08T02:30:58;13.27;;;10.23;;
7402;SDS011;3742;48.770;11.440;2022-12-08T02:33:47;13.63;;;10.00;;
7402;SDS011;3742;48.770;11.440;2022-12-08T02:36:31;12.47;;;9.60;;
7402;SDS011;3742;48.770;11.440;2022-12-08T02:39:06;14.07;;;10.53;;
7402;SDS011;3742;48.770;11.440;2022-12-08T02:41:41;12.83;;;10.10;;
7402;SDS011;3742;48.770;11.440;2022-12-08T02:44:15;14.20;;;10.50;;
7402;SDS011;3742;48.770;11.440;2022-12-08T02:46:49;13.53;;;9.97;;
7402;SDS011;3742;48.770;11.440;2022-12-08T02:49:21;15.17;;;10.53;;
7402;SDS011;3742;48.770;11.440;2022-12-08T02:52:03;12.07;;;10.10;;
7402;SDS011;3742;48.770;11.440;2022-12-08T02:54:32;15.90;;;10.80;;
7402;SDS011;3742;48.770;11.440;2022-12-08T02:57:14;13.63;;;9.83;;
7402;SDS011;3742;48.770;11.440;2022-12-08T03:00:02;11.57;;;10.23;;
7402;SDS011;3742;48.770;11.440;2022-12-08T03:02:40;12.73;;;9.97;;
7402;SDS011;3742;48.770;11.440;2022-12-08T03:05:20;11.20;;;9.50;;
7402;SDS011;3742;48.770;11.440;2022-12-08T03:07:54;12.00;;;10.10;;
7402;SDS011;3742;48.770;11.440;2022-12-08T03:10:31;13.10;;;10.30;;
7402;SDS011;3742;48.770;11.440;2022-12-08T03:13:03;11.93;;;9.33;;
7402;SDS011;3742;48.770;11.440;2022-12-08T03:15:33;11.57;;;10.13;;
7402;SDS011;3742;48.770;11.440;2022-12-08T03:18:02;12.83;;;9.70;;
7402;SDS011;3742;48.770;11.440;2022-12-08T03:20:33;11.80;;;9.50;;
7402;SDS011;3742;48.770;11.440;2022-12-08T03:23:02;16.83;;;10.13;;
7402;SDS011;3742;48.770;11.440;2022-12-08T03:25:35;11.97;;;9.80;;
7402;SDS011;3742;48.770;11.440;2022-12-08T03:28:06;12.13;;;9.67;;
7402;SDS011;3742;48.770;11.440;2022-12-08T03:30:35;10.60;;;9.07;;
7402;SDS011;3742;48.770;11.440;2022-12-08T03:33:06;12.20;;;10.20;;
7402;SDS011;3742;48.770;11.440;2022-12-08T03:35:38;12.30;;;9.17;;
7402;SDS011;3742;48.770;11.440;2022-12-08T03:38:08;12.37;;;9.53;;
7402;SDS011;3742;48.770;11.440;2022-12-08T03:40:38;13.27;;;10.07;;
7402;SDS011;3742;48.770;11.440;2022-12-08T03:43:07;13.43;;;10.03;;
7402;SDS011;3742;48.770;11.440;2022-12-08T03:45:35;12.13;;;9.83;;
7402;SDS011;3742;48.770;11.440;2022-12-08T03:48:04;13.47;;;10.07;;
7402;SDS011;3742;48.770;11.440;2022-12-08T03:50:33;12.63;;;9.40;;
7402;SDS011;3742;48.770;11.440;2022-12-08T03:53:03;12.63;;;10.27;;
7402;SDS011;3742;48.770;11.440;2022-12-08T03:55:31;12.37;;;9.87;;
7402;SDS011;3742;48.770;11.440;2022-12-08T03:57:59;12.30;;;10.23;;
7402;SDS011;3742;48.770;11.440;2022-12-08T04:00:28;12.70;;;10.33;;
7402;SDS011;3742;48.770;11.440;2022-12-08T04:02:56;11.90;;;9.37;;
7402;SDS011;3742;48.770;11.440;2022-12-08T04:05:25;13.17;;;10.63;;
7402;SDS011;3742;48.770;11.440;2022-12-08T04:07:55;10.67;;;9.53;;
7402;SDS011;3742;48.770;11.440;2022-12-08T04:10:25;13.10;;;9.93;;
7402;SDS011;3742;48.770;11.440;2022-12-08T04:12:55;14.10;;;9.70;;
7402;SDS011;3742;48.770;11.440;2022-12-08T04:15:23;13.53;;;10.27;;
7402;SDS011;3742;48.770;11.440;2022-12-08T04:17:52;12.73;;;10.07;;
7402;SDS011;3742;48.770;11.440;2022-12-08T04:20:20;14.70;;;9.90;;
7402;SDS011;3742;48.770;11.440;2022-12-08T04:22:49;11.87;;;10.03;;
7402;SDS011;3742;48.770;11.440;2022-12-08T04:25:18;15.03;;;11.83;;
7402;SDS011;3742;48.770;11.440;2022-12-08T04:27:48;18.33;;;14.40;;
7402;SDS011;3742;48.770;11.440;2022-12-08T04:30:16;14.80;;;12.73;;
7402;SDS011;3742;48.770;11.440;2022-12-08T04:32:45;13.87;;;12.43;;
7402;SDS011;3742;48.770;11.440;2022-12-08T04:35:13;16.33;;;12.97;;
7402;SDS011;3742;48.770;11.440;2022-12-08T04:37:42;16.60;;;11.53;;
7402;SDS011;3742;48.770;11.440;2022-12-08T04:40:11;17.03;;;12.03;;
7402;SDS011;3742;48.770;11.440;2022-12-08T04:42:40;15.77;;;12.10;;
7402;SDS011;3742;48.770;11.440;2022-12-08T04:45:10;15.43;;;11.83;;
7402;SDS011;3742;48.770;11.440;2022-12-08T04:47:39;18.40;;;12.57;;
7402;SDS011;3742;48.770;11.440;2022-12-08T04:50:07;17.40;;;12.10;;
7402;SDS011;3742;48.770;11.440;2022-12-08T04:52:36;15.47;;;12.83;;
7402;SDS011;3742;48.770;11.440;2022-12-08T04:55:05;22.07;;;12.97;;
7402;SDS011;3742;48.770;11.440;2022-12-08T04:57:34;17.30;;;12.63;;
7402;SDS011;3742;48.770;11.440;2022-12-08T05:00:03;17.87;;;13.23;;
7402;SDS011;3742;48.770;11.440;2022-12-08T05:02:34;16.10;;;11.80;;
7402;SDS011;3742;48.770;11.440;2022-12-08T05:05:03;15.83;;;11.90;;
7402;SDS011;3742;48.770;11.440;2022-12-08T05:07:33;14.23;;;11.40;;
7402;SDS011;3742;48.770;11.440;2022-12-08T05:10:02;15.00;;;11.53;;
7402;SDS011;3742;48.770;11.440;2022-12-08T05:12:31;16.87;;;11.07;;
7402;SDS011;3742;48.770;11.440;2022-12-08T05:15:00;15.70;;;11.53;;
7402;SDS011;3742;48.770;11.440;2022-12-08T05:17:29;16.57;;;12.10;;
7402;SDS011;3742;48.770;11.440;2022-12-08T05:19:59;15.43;;;11.83;;
7402;SDS011;3742;48.770;11.440;2022-12-08T05:22:29;16.23;;;11.47;;
7402;SDS011;3742;48.770;11.440;2022-12-08T05:24:57;17.40;;;11.30;;
7402;SDS011;3742;48.770;11.440;2022-12-08T05:27:26;16.13;;;11.70;;
7402;SDS011;3742;48.770;11.440;2022-12-08T05:29:54;14.30;;;11.57;;
7402;SDS011;3742;48.770;11.440;2022-12-08T05:32:23;17.17;;;12.40;;
7402;SDS011;3742;48.770;11.440;2022-12-08T05:34:51;18.10;;;12.30;;
7402;SDS011;3742;48.770;11.440;2022-12-08T05:37:22;16.60;;;10.90;;
7402;SDS011;3742;48.770;11.440;2022-12-08T05:39:51;14.87;;;12.03;;
7402;SDS011;3742;48.770;11.440;2022-12-08T05:42:20;15.90;;;12.17;;
7402;SDS011;3742;48.770;11.440;2022-12-08T05:44:51;15.03;;;12.13;;
7402;SDS011;3742;48.770;11.440;2022-12-08T05:47:20;19.03;;;17.07;;
7402;SDS011;3742;48.770;11.440;2022-12-08T05:49:48;22.67;;;17.03;;
7402;SDS011;3742;48.770;11.440;2022-12-08T05:52:17;20.37;;;18.10;;
7402;SDS011;3742;48.770;11.440;2022-12-08T05:54:47;18.90;;;15.50;;
7402;SDS011;3742;48.770;11.440;2022-12-08T05:57:15;19.03;;;15.40;;
7402;SDS011;3742;48.770;11.440;2022-12-08T05:59:44;19.70;;;14.83;;
7402;SDS011;3742;48.770;11.440;2022-12-08T06:02:12;15.47;;;13.17;;
7402;SDS011;3742;48.770;11.440;2022-12-08T06:04:41;17.30;;;12.80;;
7402;SDS011;3742;48.770;11.440;2022-12-08T06:07:10;15.77;;;13.20;;
7402;SDS011;3742;48.770;11.440;2022-12-08T06:09:42;12.80;;;11.10;;
7402;SDS011;3742;48.770;11.440;2022-12-08T06:12:12;16.90;;;11.53;;
7402;SDS011;3742;48.770;11.440;2022-12-08T06:14:42;15.93;;;11.77;;
7402;SDS011;3742;48.770;11.440;2022-12-08T06:17:10;17.33;;;12.67;;
7402;SDS011;3742;48.770;11.440;2022-12-08T06:19:39;20.10;;;12.83;;
7402;SDS011;3742;48.770;11.440;2022-12-08T06:22:08;20.40;;;13.07;;
7402;SDS011;3742;48.770;11.440;2022-12-08T06:24:37;23.23;;;13.17;;
7402;SDS011;3742;48.770;11.440;2022-12-08T06:27:06;20.77;;;12.77;;
7402;SDS011;3742;48.770;11.440;2022-12-08T06:29:36;30.33;;;12.10;;
7402;SDS011;3742;48.770;11.440;2022-12-08T06:32:05;36.67;;;13.30;;
7402;SDS011;3742;48.770;11.440;2022-12-08T06:34:33;30.87;;;12.13;;
7402;SDS011;3742;48.770;11.440;2022-12-08T06:37:02;39.53;;;13.40;;
7402;SDS011;3742;48.770;11.440;2022-12-08T06:39:31;34.60;;;12.47;;
7402;SDS011;3742;48.770;11.440;2022-12-08T06:42:00;43.80;;;12.73;;
7402;SDS011;3742;48.770;11.440;2022-12-08T06:44:47;36.03;;;13.80;;
7402;SDS011;3742;48.770;11.440;2022-12-08T06:47:17;66.07;;;15.07;;
7402;SDS011;3742;48.770;11.440;2022-12-08T06:49:52;84.43;;;15.17;;
7402;SDS011;3742;48.770;11.440;2022-12-08T06:52:20;69.87;;;16.03;;
7402;SDS011;3742;48.770;11.440;2022-12-08T06:54:49;136.20;;;16.63;;
7402;SDS011;3742;48.770;11.440;2022-12-08T06:57:18;191.60;;;19.07;;
7402;SDS011;3742;48.770;11.440;2022-12-08T06:59:48;144.50;;;16.83;;
7402;SDS011;3742;48.770;11.440;2022-12-08T07:02:16;92.80;;;15.50;;
7402;SDS011;3742;48.770;11.440;2022-12-08T07:04:45;148.43;;;16.37;;
7402;SDS011;3742;48.770;11.440;2022-12-08T07:07:14;136.40;;;16.07;;
7402;SDS011;3742;48.770;11.440;2022-12-08T07:09:42;76.97;;;14.97;;
7402;SDS011;3742;48.770;11.440;2022-12-08T07:12:12;124.40;;;17.10;;
7402;SDS011;3742;48.770;11.440;2022-12-08T07:14:40;175.43;;;17.63;;
7402;SDS011;3742;48.770;11.440;2022-12-08T07:17:10;151.87;;;18.10;;
7402;SDS011;3742;48.770;11.440;2022-12-08T07:19:39;85.13;;;15.80;;
7402;SDS011;3742;48.770;11.440;2022-12-08T07:22:08;129.03;;;16.93;;
7402;SDS011;3742;48.770;11.440;2022-12-08T07:24:36;93.57;;;14.43;;
7402;SDS011;3742;48.770;11.440;2022-12-08T07:27:05;102.50;;;14.83;;
7402;SDS011;3742;48.770;11.440;2022-12-08T07:29:34;99.07;;;14.87;;
7402;SDS011;3742;48.770;11.440;2022-12-08T07:32:02;127.27;;;16.10;;
7402;SDS011;3742;48.770;11.440;2022-12-08T07:34:32;91.07;;;14.87;;
7402;SDS011;3742;48.770;11.440;2022-12-08T07:37:01;171.73;;;17.67;;
7402;SDS011;3742;48.770;11.440;2022-12-08T07:39:29;184.20;;;15.87;;
7402;SDS011;3742;48.770;11.440;2022-12-08T07:41:58;128.23;;;14.50;;
7402;SDS011;3742;48.770;11.440;2022-12-08T07:44:26;113.77;;;15.63;;
7402;SDS011;3742;48.770;11.440;2022-12-08T07:46:55;97.17;;;14.53;;
7402;SDS011;3742;48.770;11.440;2022-12-08T07:49:23;132.90;;;15.97;;
7402;SDS011;3742;48.770;11.440;2022-12-08T07:51:53;141.67;;;15.03;;
7402;SDS011;3742;48.770;11.440;2022-12-08T07:54:22;149.77;;;15.27;;
7402;SDS011;3742;48.770;11.440;2022-12-08T07:56:51;162.20;;;16.20;;
7402;SDS011;3742;48.770;11.440;2022-12-08T07:59:19;167.87;;;16.10;;
7402;SDS011;3742;48.770;11.440;2022-12-08T08:01:48;101.07;;;13.73;;
7402;SDS011;3742;48.770;11.440;2022-12-08T08:04:37;177.77;;;16.40;;
7402;SDS011;3742;48.770;11.440;2022-12-08T08:07:07;154.87;;;16.37;;
7402;SDS011;3742;48.770;11.440;2022-12-08T08:09:36;162.47;;;14.57;;
7402;SDS011;3742;48.770;11.440;2022-12-08T08:12:04;147.43;;;15.40;;
7402;SDS011;3742;48.770;11.440;2022-12-08T08:14:53;144.20;;;14.73;;
7402;SDS011;3742;48.770;11.440;2022-12-08T08:17:22;213.00;;;17.87;;
7402;SDS011;3742;48.770;11.440;2022-12-08T08:19:51;78.93;;;13.43;;
7402;SDS011;3742;48.770;11.440;2022-12-08T08:22:21;89.27;;;14.60;;
7402;SDS011;3742;48.770;11.440;2022-12-08T08:24:50;82.17;;;14.37;;
7402;SDS011;3742;48.770;11.440;2022-12-08T08:27:19;96.57;;;16.17;;
7402;SDS011;3742;48.770;11.440;2022-12-08T08:29:48;105.63;;;14.40;;
7402;SDS011;3742;48.770;11.440;2022-12-08T08:32:17;99.73;;;14.30;;
7402;SDS011;3742;48.770;11.440;2022-12-08T08:34:45;63.20;;;12.30;;
7402;SDS011;3742;48.770;11.440;2022-12-08T08:37:14;78.10;;;12.13;;
7402;SDS011;3742;48.770;11.440;2022-12-08T08:39:44;76.83;;;11.87;;
7402;SDS011;3742;48.770;11.440;2022-12-08T08:42:12;76.13;;;12.43;;
7402;SDS011;3742;48.770;11.440;2022-12-08T08:44:41;59.83;;;10.83;;
7402;SDS011;3742;48.770;11.440;2022-12-08T08:47:10;77.47;;;11.70;;
7402;SDS011;3742;48.770;11.440;2022-12-08T08:49:39;78.40;;;11.50;;
7402;SDS011;3742;48.770;11.440;2022-12-08T08:52:07;120.03;;;13.13;;
7402;SDS011;3742;48.770;11.440;2022-12-08T08:54:36;103.40;;;12.47;;
7402;SDS011;3742;48.770;11.440;2022-12-08T08:57:07;106.53;;;11.67;;
7402;SDS011;3742;48.770;11.440;2022-12-08T08:59:35;118.30;;;13.93;;
7402;SDS011;3742;48.770;11.440;2022-12-08T09:02:04;127.70;;;13.87;;
7402;SDS011;3742;48.770;11.440;2022-12-08T09:04:34;92.53;;;11.47;;
7402;SDS011;3742;48.770;11.440;2022-12-08T09:07:04;98.07;;;11.70;;
7402;SDS011;3742;48.770;11.440;2022-12-08T09:09:32;82.43;;;12.03;;
7402;SDS011;3742;48.770;11.440;2022-12-08T09:12:01;86.17;;;11.47;;
7402;SDS011;3742;48.770;11.440;2022-12-08T09:14:31;110.90;;;13.93;;
7402;SDS011;3742;48.770;11.440;2022-12-08T09:17:00;142.87;;;16.07;;
7402;SDS011;3742;48.770;11.440;2022-12-08T09:19:29;82.93;;;14.23;;
7402;SDS011;3742;48.770;11.440;2022-12-08T09:21:57;71.77;;;13.87;;
7402;SDS011;3742;48.770;11.440;2022-12-08T09:24:26;51.77;;;12.40;;
7402;SDS011;3742;48.770;11.440;2022-12-08T09:26:54;55.20;;;12.43;;
7402;SDS011;3742;48.770;11.440;2022-12-08T09:29:23;78.03;;;13.37;;
7402;SDS011;3742;48.770;11.440;2022-12-08T09:31:59;53.77;;;13.67;;
7402;SDS011;3742;48.770;11.440;2022-12-08T09:34:28;29.20;;;12.03;;
7402;SDS011;3742;48.770;11.440;2022-12-08T09:36:58;20.40;;;12.20;;
7402;SDS011;3742;48.770;11.440;2022-12-08T09:39:27;56.07;;;12.67;;
7402;SDS011;3742;48.770;11.440;2022-12-08T09:41:56;45.53;;;12.47;;
7402;SDS011;3742;48.770;11.440;2022-12-08T09:44:42;38.37;;;15.47;;
7402;SDS011;3742;48.770;11.440;2022-12-08T09:47:19;32.27;;;12.23;;
7402;SDS011;3742;48.770;11.440;2022-12-08T09:49:52;28.23;;;11.37;;
7402;SDS011;3742;48.770;11.440;2022-12-08T09:52:24;133.87;;;15.90;;
7402;SDS011;3742;48.770;11.440;2022-12-08T09:54:55;38.63;;;13.33;;
7402;SDS011;3742;48.770;11.440;2022-12-08T09:57:24;22.70;;;11.60;;
7402;SDS011;3742;48.770;11.440;2022-12-08T09:59:54;29.47;;;11.97;;
7402;SDS011;3742;48.770;11.440;2022-12-08T10:02:28;38.87;;;12.20;;
7402;SDS011;3742;48.770;11.440;2022-12-08T10:04:57;25.63;;;11.17;;
7402;SDS011;3742;48.770;11.440;2022-12-08T10:07:29;37.97;;;12.17;;
7402;SDS011;3742;48.770;11.440;2022-12-08T10:10:02;34.73;;;12.30;;
7402;SDS011;3742;48.770;11.440;2022-12-08T10:12:36;22.90;;;13.13;;
7402;SDS011;3742;48.770;11.440;2022-12-08T10:15:14;33.20;;;13.00;;
7402;SDS011;3742;48.770;11.440;2022-12-08T10:17:55;28.53;;;13.27;;
7402;SDS011;3742;48.770;11.440;2022-12-08T10:20:26;25.13;;;13.83;;
7402;SDS011;3742;48.770;11.440;2022-12-08T10:23:01;23.00;;;13.63;;
7402;SDS011;3742;48.770;11.440;2022-12-08T10:25:35;21.50;;;16.30;;
7402;SDS011;3742;48.770;11.440;2022-12-08T10:28:06;19.73;;;13.77;;
7402;SDS011;3742;48.770;11.440;2022-12-08T10:30:37;19.43;;;14.70;;
7402;SDS011;3742;48.770;11.440;2022-12-08T10:33:09;20.47;;;14.17;;
7402;SDS011;3742;48.770;11.440;2022-12-08T10:35:43;21.73;;;14.33;;
7402;SDS011;3742;48.770;11.440;2022-12-08T10:38:16;17.87;;;13.77;;
7402;SDS011;3742;48.770;11.440;2022-12-08T10:40:46;21.57;;;15.73;;
7402;SDS011;3742;48.770;11.440;2022-12-08T10:43:16;24.23;;;14.77;;
7402;SDS011;3742;48.770;11.440;2022-12-08T10:45:48;24.27;;;16.37;;
7402;SDS011;3742;48.770;11.440;2022-12-08T10:48:18;21.40;;;16.80;;
7402;SDS011;3742;48.770;11.440;2022-12-08T10:50:52;23.17;;;17.43;;
7402;SDS011;3742;48.770;11.440;2022-12-08T10:53:22;18.57;;;14.73;;
7402;SDS011;3742;48.770;11.440;2022-12-08T10:55:52;21.37;;;14.90;;
7402;SDS011;3742;48.770;11.440;2022-12-08T10:58:33;21.57;;;16.60;;
7402;SDS011;3742;48.770;11.440;2022-12-08T11:01:05;22.47;;;15.77;;
7402;SDS011;3742;48.770;11.440;2022-12-08T11:03:42;23.30;;;16.00;;
7402;SDS011;3742;48.770;11.440;2022-12-08T11:06:14;19.67;;;16.53;;
7402;SDS011;3742;48.770;11.440;2022-12-08T11:08:45;22.63;;;16.70;;
7402;SDS011;3742;48.770;11.440;2022-12-08T11:11:16;21.93;;;17.07;;
7402;SDS011;3742;48.770;11.440;2022-12-08T11:13:50;21.03;;;15.67;;
7402;SDS011;3742;48.770;11.440;2022-12-08T11:16:18;22.23;;;16.00;;
7402;SDS011;3742;48.770;11.440;2022-12-08T11:18:55;19.13;;;15.47;;
7402;SDS011;3742;48.770;11.440;2022-12-08T11:21:33;23.03;;;16.67;;
7402;SDS011;3742;48.770;11.440;2022-12-08T11:26:51;20.53;;;16.47;;
7402;SDS011;3742;48.770;11.440;2022-12-08T11:29:21;20.87;;;15.40;;
7402;SDS011;3742;48.770;11.440;2022-12-08T11:31:51;21.60;;;16.57;;
7402;SDS011;3742;48.770;11.440;2022-12-08T11:34:26;21.80;;;16.10;;
7402;SDS011;3742;48.770;11.440;2022-12-08T11:36:58;20.90;;;16.73;;
7402;SDS011;3742;48.770;11.440;2022-12-08T11:39:27;21.30;;;16.07;;
7402;SDS011;3742;48.770;11.440;2022-12-08T11:41:59;23.43;;;16.80;;
7402;SDS011;3742;48.770;11.440;2022-12-08T11:44:31;19.97;;;14.60;;
7402;SDS011;3742;48.770;11.440;2022-12-08T11:47:04;21.80;;;16.40;;
7402;SDS011;3742;48.770;11.440;2022-12-08T11:49:36;24.90;;;17.87;;
7402;SDS011;3742;48.770;11.440;2022-12-08T11:52:13;22.07;;;17.57;;
7402;SDS011;3742;48.770;11.440;2022-12-08T11:54:45;23.07;;;16.70;;
7402;SDS011;3742;48.770;11.440;2022-12-08T11:57:15;22.70;;;15.13;;
7402;SDS011;3742;48.770;11.440;2022-12-08T11:59:47;23.97;;;17.03;;
7402;SDS011;3742;48.770;11.440;2022-12-08T12:02:17;27.07;;;19.03;;
7402;SDS011;3742;48.770;11.440;2022-12-08T12:04:49;24.90;;;17.87;;
7402;SDS011;3742;48.770;11.440;2022-12-08T12:10:20;28.20;;;17.57;;
7402;SDS011;3742;48.770;11.440;2022-12-08T12:12:58;27.87;;;19.67;;
7402;SDS011;3742;48.770;11.440;2022-12-08T12:18:42;28.37;;;18.03;;
7402;SDS011;3742;48.770;11.440;2022-12-08T12:21:14;23.50;;;17.87;;
7402;SDS011;3742;48.770;11.440;2022-12-08T12:23:46;24.40;;;18.17;;
7402;SDS011;3742;48.770;11.440;2022-12-08T12:26:20;24.33;;;18.33;;
7402;SDS011;3742;48.770;11.440;2022-12-08T12:28:50;26.37;;;19.50;;
7402;SDS011;3742;48.770;11.440;2022-12-08T12:31:21;26.97;;;19.37;;
7402;SDS011;3742;48.770;11.440;2022-12-08T12:33:50;23.57;;;18.43;;
7402;SDS011;3742;48.770;11.440;2022-12-08T12:36:23;24.27;;;18.67;;
7402;SDS011;3742;48.770;11.440;2022-12-08T12:38:52;26.10;;;19.33;;
7402;SDS011;3742;48.770;11.440;2022-12-08T12:41:30;29.07;;;19.17;;
7402;SDS011;3742;48.770;11.440;2022-12-08T12:44:07;27.27;;;18.93;;
7402;SDS011;3742;48.770;11.440;2022-12-08T12:46:57;25.50;;;18.43;;
7402;SDS011;3742;48.770;11.440;2022-12-08T12:58:33;31.83;;;20.47;;
7402;SDS011;3742;48.770;11.440;2022-12-08T13:04:05;50.50;;;31.00;;
7402;SDS011;3742;48.770;11.440;2022-12-08T13:06:37;26.40;;;19.03;;
7402;SDS011;3742;48.770;11.440;2022-12-08T13:09:18;26.77;;;20.03;;
7402;SDS011;3742;48.770;11.440;2022-12-08T13:11:48;27.43;;;20.30;;
7402;SDS011;3742;48.770;11.440;2022-12-08T13:14:24;27.30;;;18.97;;
7402;SDS011;3742;48.770;11.440;2022-12-08T13:16:55;22.53;;;16.67;;
7402;SDS011;3742;48.770;11.440;2022-12-08T13:19:27;29.73;;;21.03;;
7402;SDS011;3742;48.770;11.440;2022-12-08T13:21:58;27.60;;;20.13;;
7402;SDS011;3742;48.770;11.440;2022-12-08T13:24:29;26.10;;;19.27;;
7402;SDS011;3742;48.770;11.440;2022-12-08T13:33:14;27.80;;;20.70;;
7402;SDS011;3742;48.770;11.440;2022-12-08T13:35:47;28.87;;;20.67;;
7402;SDS011;3742;48.770;11.440;2022-12-08T13:38:21;29.30;;;21.03;;
7402;SDS011;3742;48.770;11.440;2022-12-08T13:40:55;28.53;;;21.53;;
7402;SDS011;3742;48.770;11.440;2022-12-08T13:43:25;30.67;;;21.27;;
7402;SDS011;3742;48.770;11.440;2022-12-08T13:46:20;30.73;;;21.07;;
7402;SDS011;3742;48.770;11.440;2022-12-08T13:49:17;30.57;;;20.10;;
7402;SDS011;3742;48.770;11.440;2022-12-08T13:52:15;31.00;;;22.23;;
7402;SDS011;3742;48.770;11.440;2022-12-08T13:55:14;30.30;;;20.97;;
7402;SDS011;3742;48.770;11.440;2022-12-08T13:58:06;28.73;;;20.77;;
7402;SDS011;3742;48.770;11.440;2022-12-08T14:00:53;27.80;;;21.83;;
7402;SDS011;3742;48.770;11.440;2022-12-08T14:03:25;30.43;;;22.27;;
7402;SDS011;3742;48.770;11.440;2022-12-08T14:05:54;28.37;;;19.67;;
7402;SDS011;3742;48.770;11.440;2022-12-08T14:08:39;26.80;;;20.60;;
7402;SDS011;3742;48.770;11.440;2022-12-08T14:11:30;27.63;;;20.60;;
7402;SDS011;3742;48.770;11.440;2022-12-08T14:14:04;32.00;;;20.77;;
7402;SDS011;3742;48.770;11.440;2022-12-08T14:16:36;26.90;;;19.23;;
7402;SDS011;3742;48.770;11.440;2022-12-08T14:19:13;29.00;;;20.93;;
7402;SDS011;3742;48.770;11.440;2022-12-08T14:21:50;30.63;;;20.83;;
7402;SDS011;3742;48.770;11.440;2022-12-08T14:24:20;27.73;;;20.30;;
7402;SDS011;3742;48.770;11.440;2022-12-08T14:26:50;27.23;;;18.57;;
7402;SDS011;3742;48.770;11.440;2022-12-08T14:29:30;29.20;;;20.03;;
7402;SDS011;3742;48.770;11.440;2022-12-08T14:32:04;26.53;;;19.93;;
7402;SDS011;3742;48.770;11.440;2022-12-08T14:34:33;23.53;;;19.40;;
7402;SDS011;3742;48.770;11.440;2022-12-08T14:37:09;28.67;;;20.13;;
7402;SDS011;3742;48.770;11.440;2022-12-08T14:39:39;25.73;;;18.63;;
7402;SDS011;3742;48.770;11.440;2022-12-08T14:42:11;25.63;;;18.83;;
7402;SDS011;3742;48.770;11.440;2022-12-08T14:44:55;26.23;;;19.77;;
7402;SDS011;3742;48.770;11.440;2022-12-08T14:47:29;28.83;;;20.30;;
7402;SDS011;3742;48.770;11.440;2022-12-08T14:49:58;26.47;;;18.83;;
7402;SDS011;3742;48.770;11.440;2022-12-08T14:52:27;24.53;;;18.93;;
7402;SDS011;3742;48.770;11.440;2022-12-08T14:54:56;23.33;;;17.57;;
7402;SDS011;3742;48.770;11.440;2022-12-08T14:57:30;33.53;;;19.73;;
7402;SDS011;3742;48.770;11.440;2022-12-08T15:00:17;26.13;;;18.17;;
7402;SDS011;3742;48.770;11.440;2022-12-08T15:02:47;25.57;;;17.97;;
7402;SDS011;3742;48.770;11.440;2022-12-08T15:05:17;28.37;;;18.23;;
7402;SDS011;3742;48.770;11.440;2022-12-08T15:07:47;30.70;;;20.13;;
7402;SDS011;3742;48.770;11.440;2022-12-08T15:10:22;28.63;;;20.20;;
7402;SDS011;3742;48.770;11.440;2022-12-08T15:12:59;27.80;;;19.37;;
7402;SDS011;3742;48.770;11.440;2022-12-08T15:15:43;28.50;;;20.97;;
7402;SDS011;3742;48.770;11.440;2022-12-08T15:18:14;30.43;;;20.73;;
7402;SDS011;3742;48.770;11.440;2022-12-08T15:20:45;31.97;;;22.10;;
7402;SDS011;3742;48.770;11.440;2022-12-08T15:23:24;31.70;;;22.70;;
7402;SDS011;3742;48.770;11.440;2022-12-08T15:25:54;30.37;;;22.23;;
7402;SDS011;3742;48.770;11.440;2022-12-08T15:28:24;30.10;;;21.87;;
7402;SDS011;3742;48.770;11.440;2022-12-08T15:30:58;31.97;;;22.53;;